Terminal Aerodrome Forecast
Issued by NWS Sioux Falls, SD

Home | Current Version | Previous Version | Text Only | Print | Product List | Glossary Off
Versions: 1 2 3 4 5 6 7 8 9 10 11 12 13 14
000 FTUS43 KFSD 132320 TAFFSD TAF KFSD 132320Z 1400/1424 17014G22KT P6SM BKN070 FM140500 17010G17KT P6SM -SHRA BKN070 FM141200 16009KT P6SM OVC025 FM141600 17009KT P6SM BKN018 FM142000 17009KT P6SM BKN050=

USA.gov is the U.S. government's official web portal to all federal, state and local government web resources and services.